createdAt,value
2019-06-20T00:00:49.238Z,16.88
2019-06-20T00:03:18.816Z,16.89
2019-06-20T00:05:48.244Z,16.98
2019-06-20T00:08:17.662Z,16.92
2019-06-20T00:10:47.276Z,16.97
2019-06-20T00:13:16.790Z,16.93
2019-06-20T00:15:46.242Z,17.00
2019-06-20T00:18:15.910Z,16.85
2019-06-20T00:20:45.350Z,16.96
2019-06-20T00:23:14.901Z,16.99
2019-06-20T00:25:44.354Z,17.10
2019-06-20T00:28:13.771Z,17.02
2019-06-20T00:30:43.227Z,17.01
2019-06-20T00:33:12.636Z,17.01
2019-06-20T00:35:42.091Z,17.14
2019-06-20T00:38:11.507Z,17.15
2019-06-20T00:40:40.957Z,17.11
2019-06-20T00:43:17.350Z,17.13
2019-06-20T00:45:41.506Z,17.20
2019-06-20T00:48:10.927Z,17.31
2019-06-20T00:50:40.366Z,17.30
2019-06-20T00:53:09.781Z,17.33
2019-06-20T00:55:39.233Z,17.27
2019-06-20T00:58:08.720Z,17.32
2019-06-20T01:00:38.170Z,17.30
2019-06-20T01:03:07.754Z,17.25
2019-06-20T01:05:37.312Z,17.30
2019-06-20T01:08:06.727Z,17.36
2019-06-20T01:10:36.182Z,17.39
2019-06-20T01:13:05.770Z,17.27
2019-06-20T01:15:35.346Z,17.42
2019-06-20T01:18:04.837Z,17.42
2019-06-20T01:20:34.277Z,17.46
2019-06-20T01:23:04.256Z,17.49
2019-06-20T01:25:38.507Z,17.35
2019-06-20T01:28:08.064Z,17.39
2019-06-20T01:30:37.751Z,17.43
2019-06-20T01:33:07.167Z,17.44
2019-06-20T01:35:36.695Z,17.50
2019-06-20T01:38:06.547Z,17.39
2019-06-20T01:40:36.066Z,17.53
2019-06-20T01:43:05.541Z,17.38
2019-06-20T01:45:35.058Z,17.34
2019-06-20T01:48:04.629Z,17.33
2019-06-20T01:50:34.139Z,17.30
2019-06-20T01:53:03.617Z,17.36
2019-06-20T01:55:33.057Z,17.22
2019-06-20T01:58:02.466Z,17.29
2019-06-20T02:00:45.093Z,17.18
2019-06-20T02:03:15.622Z,17.10
2019-06-20T02:05:45.508Z,17.11
2019-06-20T02:08:15.486Z,17.07
2019-06-20T02:10:45.033Z,17.05
2019-06-20T02:13:14.478Z,17.00
2019-06-20T02:15:44.349Z,16.62
2019-06-20T02:18:14.136Z,16.62
2019-06-20T02:20:55.381Z,16.53
2019-06-20T02:23:24.890Z,16.41
2019-06-20T02:25:54.344Z,16.31
2019-06-20T02:28:24.234Z,16.25
2019-06-20T02:30:55.258Z,16.21
2019-06-20T02:33:24.711Z,16.08
2019-06-20T02:35:54.155Z,15.91
2019-06-20T02:38:23.593Z,15.95
2019-06-20T02:40:53.002Z,15.87
2019-06-20T02:43:23.116Z,15.77
2019-06-20T02:45:52.524Z,15.73
2019-06-20T02:48:21.972Z,15.71
2019-06-20T02:50:51.453Z,15.59
2019-06-20T02:53:20.967Z,15.55
2019-06-20T02:55:50.440Z,15.52
2019-06-20T02:58:19.890Z,15.51
2019-06-20T03:00:52.621Z,15.48
2019-06-20T03:03:22.067Z,15.55
2019-06-20T03:05:51.467Z,15.60
2019-06-20T03:08:20.992Z,15.75
2019-06-20T03:10:50.536Z,15.82
2019-06-20T03:13:20.169Z,15.85
2019-06-20T03:15:50.186Z,15.87
2019-06-20T03:18:19.889Z,15.98
2019-06-20T03:20:49.371Z,15.99
2019-06-20T03:23:18.891Z,15.92
2019-06-20T03:25:48.481Z,16.02
2019-06-20T03:28:18.004Z,15.98
2019-06-20T03:30:47.427Z,16.07
2019-06-20T03:33:17.122Z,16.06
2019-06-20T03:35:46.533Z,16.07
2019-06-20T03:38:17.497Z,16.08
2019-06-20T03:40:46.914Z,16.09
2019-06-20T03:43:16.416Z,16.19
2019-06-20T03:45:45.826Z,16.22
2019-06-20T03:48:15.510Z,16.33
2019-06-20T03:50:44.920Z,16.33
2019-06-20T03:53:14.377Z,16.24
2019-06-20T03:55:43.783Z,16.35
2019-06-20T03:58:14.796Z,16.35
2019-06-20T04:00:44.576Z,16.25
2019-06-20T04:03:14.041Z,16.25
2019-06-20T04:05:43.438Z,16.31
2019-06-20T04:08:12.877Z,16.26
2019-06-20T04:10:42.313Z,16.29
2019-06-20T04:13:11.757Z,16.41
2019-06-20T04:15:41.187Z,16.26
2019-06-20T04:18:10.622Z,16.26
2019-06-20T04:20:40.038Z,16.15
2019-06-20T04:23:09.500Z,16.15
2019-06-20T04:25:38.897Z,16.20
2019-06-20T04:28:08.361Z,16.20
2019-06-20T04:30:37.831Z,16.19
2019-06-20T04:33:07.255Z,16.30
2019-06-20T04:35:36.650Z,16.19
2019-06-20T04:38:06.086Z,16.29
2019-06-20T04:40:35.498Z,16.31
2019-06-20T04:43:05.025Z,16.42
2019-06-20T04:45:36.086Z,16.57
2019-06-20T04:48:05.721Z,16.53
2019-06-20T04:50:35.626Z,16.56
2019-06-20T04:53:05.140Z,16.56
2019-06-20T04:55:34.652Z,16.64
2019-06-20T04:58:04.180Z,16.72
2019-06-20T05:00:33.617Z,16.65
2019-06-20T05:03:03.224Z,16.62
2019-06-20T05:05:32.739Z,16.48
2019-06-20T05:08:02.198Z,16.46
2019-06-20T05:10:31.652Z,16.45
2019-06-20T05:13:01.420Z,16.61
2019-06-20T05:15:30.926Z,16.61
2019-06-20T05:18:00.533Z,16.71
2019-06-20T05:20:30.018Z,16.65
2019-06-20T05:22:59.445Z,16.75
2019-06-20T05:25:28.967Z,16.83
2019-06-20T05:27:58.451Z,16.81
2019-06-20T05:30:28.025Z,16.82
2019-06-20T05:32:57.464Z,16.82
2019-06-20T05:35:26.919Z,16.86
2019-06-20T05:37:57.137Z,16.80
2019-06-20T05:40:26.752Z,16.80
2019-06-20T05:42:56.211Z,16.78
2019-06-20T05:45:25.640Z,16.85
2019-06-20T05:47:56.655Z,17.03
2019-06-20T05:50:26.065Z,17.05
2019-06-20T05:52:55.538Z,17.34
2019-06-20T05:55:24.921Z,17.45
2019-06-20T05:57:54.478Z,17.50
2019-06-20T06:00:24.089Z,17.78
2019-06-20T06:02:53.611Z,17.78
2019-06-20T06:05:23.067Z,17.82
2019-06-20T06:07:52.514Z,17.82
2019-06-20T06:10:23.176Z,17.72
2019-06-20T06:12:52.813Z,17.74
2019-06-20T06:15:22.569Z,17.78
2019-06-20T06:17:51.993Z,17.83
2019-06-20T06:20:22.793Z,18.01
2019-06-20T06:22:52.220Z,18.09
2019-06-20T06:25:21.673Z,17.94
2019-06-20T06:27:51.086Z,18.07
2019-06-20T06:30:20.685Z,18.30
2019-06-20T06:32:50.103Z,18.22
2019-06-20T06:35:19.796Z,18.33
2019-06-20T06:37:49.200Z,18.43
2019-06-20T06:40:20.960Z,18.86
2019-06-20T06:42:50.444Z,18.89
2019-06-20T06:45:20.409Z,18.97
2019-06-20T06:47:49.926Z,18.51
2019-06-20T06:50:19.713Z,18.43
2019-06-20T06:52:49.199Z,18.44
2019-06-20T06:55:18.769Z,18.69
2019-06-20T06:57:48.256Z,18.70
2019-06-20T07:00:18.312Z,18.69
2019-06-20T07:02:47.731Z,18.49
2019-06-20T07:05:17.664Z,18.47
2019-06-20T07:07:47.082Z,18.45
2019-06-20T07:10:17.243Z,18.51
2019-06-20T07:12:46.994Z,18.50
2019-06-20T07:15:17.389Z,18.67
2019-06-20T07:17:46.827Z,18.79
2019-06-20T07:20:17.384Z,19.06
2019-06-20T07:22:46.828Z,18.85
2019-06-20T07:25:17.624Z,19.06
2019-06-20T07:27:47.051Z,19.06
2019-06-20T07:30:17.922Z,19.13
2019-06-20T07:32:47.408Z,19.32
2019-06-20T07:35:17.483Z,19.62
2019-06-20T07:37:47.013Z,19.93
2019-06-20T07:40:17.897Z,20.09
2019-06-20T07:42:47.417Z,20.25
2019-06-20T07:45:17.307Z,20.71
2019-06-20T07:47:46.977Z,20.64
2019-06-20T07:50:16.562Z,20.74
2019-06-20T07:53:00.850Z,20.04
2019-06-20T07:55:18.001Z,19.89
2019-06-20T07:57:47.445Z,21.38
2019-06-20T08:00:17.494Z,22.27
2019-06-20T08:02:46.951Z,22.77
2019-06-20T08:05:18.415Z,22.27
2019-06-20T08:07:47.851Z,21.77
2019-06-20T08:10:19.472Z,21.63
2019-06-20T08:12:48.966Z,22.82
2019-06-20T08:15:19.065Z,23.87
2019-06-20T08:17:48.472Z,24.37
2019-06-20T08:20:19.569Z,24.56
2019-06-20T08:22:48.977Z,24.76
2019-06-20T08:25:18.896Z,24.45
2019-06-20T08:27:52.816Z,23.51
2019-06-20T08:30:29.888Z,23.09
2019-06-20T08:33:01.387Z,22.46
2019-06-20T08:35:32.393Z,22.20
2019-06-20T08:38:03.640Z,22.21
2019-06-20T08:40:36.573Z,22.20
2019-06-20T08:43:06.423Z,22.94
2019-06-20T08:45:38.388Z,23.45
2019-06-20T08:48:08.358Z,23.43
2019-06-20T08:50:38.150Z,23.41
2019-06-20T08:53:07.825Z,23.44
2019-06-20T08:55:37.604Z,22.98
2019-06-20T08:58:07.414Z,22.94
2019-06-20T09:00:38.229Z,22.58
2019-06-20T09:03:07.961Z,22.03
2019-06-20T09:05:37.457Z,21.92
2019-06-20T09:08:11.222Z,22.14
2019-06-20T09:10:40.870Z,22.25
2019-06-20T09:13:11.941Z,22.24
2019-06-20T09:15:41.959Z,21.57
2019-06-20T09:18:11.910Z,21.39
2019-06-20T09:20:41.692Z,20.72
2019-06-20T09:23:11.195Z,20.55
2019-06-20T09:25:40.884Z,20.40
2019-06-20T09:28:10.595Z,20.35
2019-06-20T09:30:40.572Z,20.12
2019-06-20T09:33:09.972Z,20.13
2019-06-20T09:35:40.988Z,19.87
2019-06-20T09:38:10.461Z,19.98
2019-06-20T09:40:41.404Z,19.94
2019-06-20T09:43:10.804Z,19.72
2019-06-20T09:45:40.326Z,19.78
2019-06-20T09:48:09.734Z,19.98
2019-06-20T09:50:39.244Z,20.00
2019-06-20T09:53:08.805Z,20.08
2019-06-20T09:55:38.249Z,20.26
2019-06-20T09:58:07.804Z,20.36
2019-06-20T10:00:38.149Z,20.23
2019-06-20T10:03:07.736Z,20.26
2019-06-20T10:05:37.358Z,20.54
2019-06-20T10:08:06.817Z,20.70
2019-06-20T10:10:37.859Z,21.52
2019-06-20T10:13:07.330Z,22.96
2019-06-20T10:15:37.724Z,25.21
2019-06-20T10:18:07.965Z,25.08
2019-06-20T10:20:39.103Z,24.87
2019-06-20T10:23:08.962Z,24.18
2019-06-20T10:25:38.839Z,23.96
2019-06-20T10:28:09.863Z,24.10
2019-06-20T10:30:39.377Z,23.85
2019-06-20T10:33:08.811Z,23.64
2019-06-20T10:35:38.328Z,23.78
2019-06-20T10:38:07.776Z,23.63
2019-06-20T10:40:37.290Z,23.31
2019-06-20T10:43:06.726Z,22.79
2019-06-20T10:45:37.707Z,22.64
2019-06-20T10:48:07.594Z,22.68
2019-06-20T10:50:37.273Z,22.82
2019-06-20T10:53:06.781Z,22.79
2019-06-20T10:55:36.299Z,22.97
2019-06-20T10:58:06.062Z,23.07
2019-06-20T11:00:35.534Z,22.79
2019-06-20T11:03:27.238Z,22.37
2019-06-20T11:05:56.745Z,21.06
2019-06-20T11:08:26.183Z,21.23
2019-06-20T11:10:55.590Z,21.17
2019-06-20T11:13:25.049Z,20.88
2019-06-20T11:15:54.423Z,20.34
2019-06-20T11:18:23.889Z,19.63
2019-06-20T11:20:53.295Z,19.29
2019-06-20T11:23:22.906Z,19.10
2019-06-20T11:25:52.483Z,18.99
2019-06-20T11:28:21.963Z,18.62
2019-06-20T11:30:58.192Z,18.73
2019-06-20T11:33:22.482Z,18.45
2019-06-20T11:35:51.887Z,18.36
2019-06-20T11:38:21.979Z,18.27
2019-06-20T11:40:51.380Z,18.39
2019-06-20T11:43:20.820Z,18.09
2019-06-20T11:45:50.230Z,17.93
2019-06-20T11:48:19.757Z,18.48
2019-06-20T11:50:49.187Z,18.87
2019-06-20T11:53:18.651Z,19.44
2019-06-20T11:55:48.018Z,19.84
2019-06-20T11:58:17.523Z,20.00
2019-06-20T12:01:02.715Z,18.74
2019-06-20T12:03:18.073Z,18.46
2019-06-20T12:05:47.637Z,18.65
2019-06-20T12:08:17.255Z,18.59
2019-06-20T12:10:47.336Z,18.71
2019-06-20T12:13:16.817Z,19.42
2019-06-20T12:15:46.647Z,19.75
2019-06-20T12:18:16.144Z,20.05
2019-06-20T12:20:46.800Z,20.23
2019-06-20T12:23:16.489Z,20.82
2019-06-20T12:25:46.559Z,21.76
2019-06-20T12:28:16.287Z,21.51
2019-06-20T12:30:45.749Z,21.16
2019-06-20T12:33:15.212Z,21.96
2019-06-20T12:35:44.615Z,21.11
2019-06-20T12:38:15.243Z,20.56
2019-06-20T12:40:46.100Z,20.24
2019-06-20T12:43:15.853Z,19.32
2019-06-20T12:45:45.297Z,18.87
2019-06-20T12:48:14.960Z,18.27
2019-06-20T12:50:45.920Z,18.16
2019-06-20T12:53:15.453Z,17.95
2019-06-20T12:55:45.774Z,17.35
2019-06-20T12:58:15.562Z,16.53
2019-06-20T13:00:46.570Z,16.64
2019-06-20T13:03:16.343Z,16.84
2019-06-20T13:05:47.070Z,16.89
2019-06-20T13:08:16.689Z,18.02
2019-06-20T13:10:46.262Z,18.02
2019-06-20T13:13:15.712Z,18.65
2019-06-20T13:15:45.147Z,18.79
2019-06-20T13:18:14.600Z,19.08
2019-06-20T13:20:44.337Z,19.21
2019-06-20T13:23:13.812Z,18.48
2019-06-20T13:25:44.490Z,17.90
2019-06-20T13:28:14.099Z,17.91
2019-06-20T13:30:47.380Z,17.59
2019-06-20T13:33:15.653Z,17.15
2019-06-20T13:35:45.430Z,16.93
2019-06-20T13:38:14.858Z,17.32
2019-06-20T13:40:45.390Z,17.76
2019-06-20T13:43:14.957Z,18.82
2019-06-20T13:45:44.801Z,19.33
2019-06-20T13:48:14.331Z,19.52
2019-06-20T13:50:45.205Z,20.15
2019-06-20T13:53:15.555Z,19.84
2019-06-20T13:55:45.808Z,20.50
2019-06-20T13:58:15.303Z,20.28
2019-06-20T14:00:47.795Z,19.48
2019-06-20T14:03:17.412Z,19.55
2019-06-20T14:05:47.253Z,19.42
2019-06-20T14:08:16.789Z,19.14
2019-06-20T14:10:47.676Z,18.93
2019-06-20T14:13:19.506Z,19.09
2019-06-20T14:15:48.668Z,18.72
2019-06-20T14:18:18.333Z,18.68
2019-06-20T14:20:48.507Z,18.25
2019-06-20T14:23:18.137Z,17.86
2019-06-20T14:25:48.678Z,17.57
2019-06-20T14:28:18.274Z,17.42
2019-06-20T14:30:48.332Z,17.50
2019-06-20T14:33:17.878Z,17.51
2019-06-20T14:35:47.884Z,17.57
2019-06-20T14:38:18.508Z,18.17
2019-06-20T14:40:48.304Z,18.49
2019-06-20T14:43:17.881Z,18.30
2019-06-20T14:45:48.695Z,18.18
2019-06-20T14:48:18.259Z,18.44
2019-06-20T14:50:49.209Z,18.81
2019-06-20T14:53:19.058Z,18.88
2019-06-20T14:55:49.628Z,18.56
2019-06-20T14:58:19.287Z,18.30
2019-06-20T15:00:49.891Z,18.28
2019-06-20T15:03:19.441Z,18.74
2019-06-20T15:05:50.067Z,18.66
2019-06-20T15:08:19.583Z,19.13
2019-06-20T15:10:50.267Z,19.17
2019-06-20T15:13:19.876Z,19.07
2019-06-20T15:15:49.619Z,19.23
2019-06-20T15:18:19.230Z,19.68
2019-06-20T15:20:50.168Z,20.25
2019-06-20T15:23:19.736Z,19.45
2019-06-20T15:25:50.410Z,19.59
2019-06-20T15:28:20.329Z,19.37
2019-06-20T15:30:50.880Z,19.34
2019-06-20T15:33:20.802Z,18.91
2019-06-20T15:35:51.152Z,19.37
2019-06-20T15:38:21.461Z,18.93
2019-06-20T15:40:51.589Z,18.87
2019-06-20T15:43:22.605Z,18.64
2019-06-20T15:45:52.163Z,18.91
2019-06-20T15:48:21.640Z,18.79
2019-06-20T15:50:51.046Z,18.44
2019-06-20T15:53:20.469Z,18.26
2019-06-20T15:55:50.025Z,17.88
2019-06-20T15:58:19.452Z,17.87
2019-06-20T16:00:48.969Z,17.84
2019-06-20T16:03:18.425Z,17.96
2019-06-20T16:05:47.935Z,18.16
2019-06-20T16:08:17.363Z,18.07
2019-06-20T16:10:46.798Z,18.55
2019-06-20T16:13:16.225Z,19.32
2019-06-20T16:15:45.661Z,19.62
2019-06-20T16:18:15.382Z,19.89
2019-06-20T16:20:44.824Z,19.23
2019-06-20T16:23:15.170Z,19.33
2019-06-20T16:25:44.623Z,19.18
2019-06-20T16:28:15.551Z,19.68
2019-06-20T16:30:45.015Z,19.44
2019-06-20T16:33:24.773Z,19.11
2019-06-20T16:35:45.718Z,19.25
2019-06-20T16:38:15.100Z,19.04
2019-06-20T16:40:48.951Z,18.81
2019-06-20T16:43:18.487Z,18.95
2019-06-20T16:45:47.984Z,19.11
2019-06-20T16:48:17.389Z,19.28
2019-06-20T16:50:46.832Z,19.23
2019-06-20T16:53:16.997Z,19.02
2019-06-20T16:55:46.435Z,18.60
2019-06-20T16:58:17.410Z,18.25
2019-06-20T17:00:46.913Z,18.40
2019-06-20T17:03:16.454Z,18.40
2019-06-20T17:05:45.942Z,18.43
2019-06-20T17:08:15.924Z,18.28
2019-06-20T17:10:45.542Z,18.39
2019-06-20T17:13:15.040Z,18.39
2019-06-20T17:15:44.574Z,18.18
2019-06-20T17:18:14.008Z,18.06
2019-06-20T17:20:43.592Z,18.21
2019-06-20T17:23:12.991Z,18.10
2019-06-20T17:25:42.527Z,18.25
2019-06-20T17:28:12.085Z,18.15
2019-06-20T17:30:43.233Z,18.17
2019-06-20T17:33:12.627Z,18.17
2019-06-20T17:35:42.059Z,18.20
2019-06-20T17:38:11.477Z,18.11
2019-06-20T17:40:41.013Z,18.18
2019-06-20T17:43:10.380Z,17.74
2019-06-20T17:45:39.911Z,17.62
2019-06-20T17:48:09.323Z,17.36
2019-06-20T17:50:38.811Z,17.47
2019-06-20T17:53:08.223Z,17.50
2019-06-20T17:55:37.656Z,17.59
2019-06-20T17:58:07.061Z,17.57
2019-06-20T18:00:37.047Z,17.28
2019-06-20T18:03:06.528Z,17.21
2019-06-20T18:05:36.016Z,17.21
2019-06-20T18:08:14.732Z,17.02
2019-06-20T18:10:36.783Z,17.01
2019-06-20T18:13:06.217Z,16.84
2019-06-20T18:15:35.796Z,16.84
2019-06-20T18:18:05.455Z,16.76
2019-06-20T18:20:35.022Z,16.65
2019-06-20T18:23:04.519Z,16.62
2019-06-20T18:25:34.038Z,16.59
2019-06-20T18:28:03.505Z,16.47
2019-06-20T18:30:42.142Z,16.38
2019-06-20T18:33:11.683Z,16.38
2019-06-20T18:35:41.415Z,16.31
2019-06-20T18:38:10.827Z,16.18
2019-06-20T18:40:40.277Z,16.09
2019-06-20T18:43:09.694Z,16.09
2019-06-20T18:45:39.200Z,16.18
2019-06-20T18:48:08.613Z,16.09
2019-06-20T18:50:38.129Z,16.12
2019-06-20T18:53:07.525Z,16.10
2019-06-20T18:55:36.970Z,16.16
2019-06-20T18:58:06.450Z,16.27
2019-06-20T19:00:36.036Z,16.27
2019-06-20T19:03:05.780Z,16.34
2019-06-20T19:05:35.230Z,16.32
2019-06-20T19:08:04.870Z,16.19
2019-06-20T19:10:34.389Z,16.05
2019-06-20T19:13:03.911Z,15.87
2019-06-20T19:15:34.878Z,15.83
2019-06-20T19:18:04.346Z,15.70
2019-06-20T19:20:33.793Z,15.60
2019-06-20T19:23:03.203Z,15.54
2019-06-20T19:25:32.709Z,15.47
2019-06-20T19:28:02.097Z,15.41
2019-06-20T19:30:43.254Z,15.36
2019-06-20T19:33:12.731Z,15.30
2019-06-20T19:35:42.229Z,15.25
2019-06-20T19:38:11.809Z,15.14
2019-06-20T19:40:49.019Z,15.02
2019-06-20T19:43:18.638Z,14.91
2019-06-20T19:45:48.166Z,15.01
2019-06-20T19:48:18.089Z,15.05
2019-06-20T19:50:47.592Z,15.18
2019-06-20T19:53:17.233Z,15.32
2019-06-20T19:55:46.948Z,15.42
2019-06-20T19:58:16.347Z,15.58
2019-06-20T20:00:45.785Z,15.57
2019-06-20T20:03:15.358Z,15.69
2019-06-20T20:05:45.342Z,15.75
2019-06-20T20:08:16.520Z,15.74
2019-06-20T20:10:49.869Z,15.68
2019-06-20T20:13:19.802Z,15.68
2019-06-20T20:15:49.351Z,15.65
2019-06-20T20:18:19.813Z,15.73
2019-06-20T20:20:49.670Z,15.77
2019-06-20T20:23:19.236Z,15.77
2019-06-20T20:25:49.216Z,15.62
2019-06-20T20:28:18.641Z,15.62
2019-06-20T20:30:48.046Z,15.25
2019-06-20T20:33:17.615Z,15.25
2019-06-20T20:35:47.089Z,14.85
2019-06-20T20:38:16.608Z,14.85
2019-06-20T20:40:46.060Z,14.28
2019-06-20T20:43:15.454Z,14.28
2019-06-20T20:45:44.962Z,14.11
2019-06-20T20:48:14.364Z,14.13
2019-06-20T20:50:44.162Z,14.15
2019-06-20T20:53:13.566Z,14.07
2019-06-20T20:55:43.087Z,13.97
2019-06-20T20:58:12.476Z,13.89
2019-06-20T21:00:44.965Z,13.83
2019-06-20T21:03:14.460Z,13.78
2019-06-20T21:05:51.570Z,13.66
2019-06-20T21:08:15.018Z,13.53
2019-06-20T21:10:45.789Z,13.45
2019-06-20T21:13:15.229Z,13.32
2019-06-20T21:15:44.682Z,13.25
2019-06-20T21:18:14.122Z,13.20
2019-06-20T21:20:43.741Z,13.14
2019-06-20T21:23:13.198Z,13.07
2019-06-20T21:25:42.634Z,13.05
2019-06-20T21:28:12.053Z,13.12
2019-06-20T21:30:41.507Z,13.13
2019-06-20T21:33:10.923Z,13.01
2019-06-20T21:35:40.868Z,12.96
2019-06-20T21:38:10.335Z,12.95
2019-06-20T21:40:39.749Z,12.93
2019-06-20T21:43:09.176Z,12.80
2019-06-20T21:45:38.616Z,12.80
2019-06-20T21:48:08.032Z,13.00
2019-06-20T21:50:37.453Z,13.13
2019-06-20T21:53:06.937Z,13.17
2019-06-20T21:55:36.353Z,13.15
2019-06-20T21:58:07.376Z,13.11
2019-06-20T22:00:41.499Z,13.17
2019-06-20T22:03:11.342Z,13.35
2019-06-20T22:05:41.095Z,13.18
2019-06-20T22:08:10.685Z,13.05
2019-06-20T22:10:40.106Z,12.97
2019-06-20T22:13:09.640Z,12.93
2019-06-20T22:15:39.118Z,12.87
2019-06-20T22:18:08.704Z,12.79
2019-06-20T22:20:38.118Z,12.77
2019-06-20T22:23:07.629Z,12.71
2019-06-20T22:25:37.055Z,12.67
2019-06-20T22:28:06.621Z,12.70
2019-06-20T22:30:47.835Z,12.76
2019-06-20T22:33:17.546Z,12.77
2019-06-20T22:35:47.116Z,12.73
2019-06-20T22:38:16.597Z,12.85
2019-06-20T22:40:46.683Z,12.81
2019-06-20T22:43:16.300Z,12.69
2019-06-20T22:45:45.792Z,12.63
2019-06-20T22:48:15.294Z,12.64
2019-06-20T22:50:44.838Z,12.74
2019-06-20T22:53:14.450Z,12.75
2019-06-20T22:55:43.932Z,12.76
2019-06-20T22:58:13.384Z,12.79
2019-06-20T23:00:43.379Z,12.68
2019-06-20T23:03:12.844Z,12.62
2019-06-20T23:05:42.305Z,12.52
2019-06-20T23:08:11.742Z,12.55
2019-06-20T23:10:41.171Z,12.66
2019-06-20T23:13:10.622Z,12.61
2019-06-20T23:15:40.404Z,12.66
2019-06-20T23:18:09.816Z,12.60
2019-06-20T23:20:39.291Z,12.63
2019-06-20T23:23:08.732Z,12.59
2019-06-20T23:25:39.829Z,12.65
2019-06-20T23:28:09.234Z,12.76
2019-06-20T23:30:39.323Z,12.91
2019-06-20T23:33:08.726Z,12.96
2019-06-20T23:35:38.632Z,12.83
2019-06-20T23:38:08.048Z,12.85
2019-06-20T23:40:37.500Z,12.84
2019-06-20T23:43:06.968Z,12.80
2019-06-20T23:45:36.422Z,12.78
2019-06-20T23:48:05.847Z,12.73
2019-06-20T23:50:35.300Z,12.76
2019-06-20T23:53:12.284Z,12.76
2019-06-20T23:55:41.717Z,12.71
2019-06-20T23:58:11.136Z,12.64
